sensor_id;sensor_type;location;lat;lon;timestamp;pressure;altitude;pressure_sealevel;temperature;humidity
28008;BME280;15333;50.010;20.020;2024-02-26T00:02:51;97888.53;;;7.37;100.00
28008;BME280;15333;50.010;20.020;2024-02-26T00:05:52;97889.69;;;7.22;100.00
28008;BME280;15333;50.010;20.020;2024-02-26T00:08:53;97891.34;;;7.12;100.00
28008;BME280;15333;50.010;20.020;2024-02-26T00:11:54;97892.06;;;7.03;100.00
28008;BME280;15333;50.010;20.020;2024-02-26T00:14:56;97902.44;;;6.95;100.00
28008;BME280;15333;50.010;20.020;2024-02-26T00:17:59;97899.03;;;6.93;100.00
28008;BME280;15333;50.010;20.020;2024-02-26T00:20:59;97892.97;;;6.91;100.00
28008;BME280;15333;50.010;20.020;2024-02-26T00:24:07;97895.13;;;6.86;100.00
28008;BME280;15333;50.010;20.020;2024-02-26T00:27:08;97886.97;;;7.00;100.00
28008;BME280;15333;50.010;20.020;2024-02-26T00:30:09;97876.31;;;7.00;100.00
28008;BME280;15333;50.010;20.020;2024-02-26T00:33:10;97877.97;;;6.90;100.00
28008;BME280;15333;50.010;20.020;2024-02-26T00:36:11;97889.53;;;6.78;100.00
28008;BME280;15333;50.010;20.020;2024-02-26T00:39:12;97890.22;;;6.68;100.00
28008;BME280;15333;50.010;20.020;2024-02-26T00:42:13;97890.00;;;6.72;94.73
28008;BME280;15333;50.010;20.020;2024-02-26T00:45:14;97886.09;;;6.64;87.70
28008;BME280;15333;50.010;20.020;2024-02-26T00:48:17;97880.03;;;6.62;83.97
28008;BME280;15333;50.010;20.020;2024-02-26T00:51:17;97871.75;;;6.67;82.12
28008;BME280;15333;50.010;20.020;2024-02-26T00:54:18;97867.94;;;6.58;82.04
28008;BME280;15333;50.010;20.020;2024-02-26T00:57:19;97866.47;;;6.54;82.49
28008;BME280;15333;50.010;20.020;2024-02-26T01:00:22;97865.00;;;6.50;81.99
28008;BME280;15333;50.010;20.020;2024-02-26T01:03:23;97880.97;;;6.50;82.25
28008;BME280;15333;50.010;20.020;2024-02-26T01:06:24;97878.69;;;6.57;82.31
28008;BME280;15333;50.010;20.020;2024-02-26T01:09:25;97878.78;;;6.55;82.43
28008;BME280;15333;50.010;20.020;2024-02-26T01:12:26;97880.50;;;6.56;82.56
28008;BME280;15333;50.010;20.020;2024-02-26T01:15:27;97867.31;;;6.55;82.70
28008;BME280;15333;50.010;20.020;2024-02-26T01:18:28;97864.66;;;6.55;82.40
28008;BME280;15333;50.010;20.020;2024-02-26T01:21:29;97866.47;;;6.54;82.46
28008;BME280;15333;50.010;20.020;2024-02-26T01:24:30;97870.13;;;6.53;82.25
28008;BME280;15333;50.010;20.020;2024-02-26T01:27:31;97874.03;;;6.48;82.64
28008;BME280;15333;50.010;20.020;2024-02-26T01:30:32;97872.94;;;6.39;82.37
28008;BME280;15333;50.010;20.020;2024-02-26T01:33:33;97868.91;;;6.34;82.01
28008;BME280;15333;50.010;20.020;2024-02-26T01:36:34;97872.09;;;6.26;82.67
28008;BME280;15333;50.010;20.020;2024-02-26T01:39:36;97875.31;;;6.31;82.30
28008;BME280;15333;50.010;20.020;2024-02-26T01:42:38;97873.81;;;6.27;82.31
28008;BME280;15333;50.010;20.020;2024-02-26T01:45:39;97872.34;;;6.23;82.47
28008;BME280;15333;50.010;20.020;2024-02-26T01:48:41;97868.38;;;6.28;82.37
28008;BME280;15333;50.010;20.020;2024-02-26T01:51:43;97873.69;;;6.28;82.41
28008;BME280;15333;50.010;20.020;2024-02-26T01:54:45;97880.97;;;6.14;82.14
28008;BME280;15333;50.010;20.020;2024-02-26T01:57:48;97875.84;;;6.47;82.64
28008;BME280;15333;50.010;20.020;2024-02-26T02:00:50;97872.69;;;6.42;82.69
28008;BME280;15333;50.010;20.020;2024-02-26T02:03:51;97879.91;;;6.40;82.33
28008;BME280;15333;50.010;20.020;2024-02-26T02:06:52;97874.41;;;6.43;82.08
28008;BME280;15333;50.010;20.020;2024-02-26T02:09:53;97873.34;;;6.33;81.95
28008;BME280;15333;50.010;20.020;2024-02-26T02:12:54;97872.09;;;6.26;81.69
28008;BME280;15333;50.010;20.020;2024-02-26T02:15:55;97886.19;;;6.15;81.33
28008;BME280;15333;50.010;20.020;2024-02-26T02:18:58;97877.97;;;5.95;81.38
28008;BME280;15333;50.010;20.020;2024-02-26T02:21:59;97884.75;;;5.73;81.21
28008;BME280;15333;50.010;20.020;2024-02-26T02:25:00;97885.06;;;5.56;82.96
28008;BME280;15333;50.010;20.020;2024-02-26T02:28:01;97883.91;;;5.35;83.58
28008;BME280;15333;50.010;20.020;2024-02-26T02:31:02;97887.41;;;5.23;84.52
28008;BME280;15333;50.010;20.020;2024-02-26T02:34:04;97875.00;;;5.36;83.45
28008;BME280;15333;50.010;20.020;2024-02-26T02:37:06;97883.72;;;5.38;83.29
28008;BME280;15333;50.010;20.020;2024-02-26T02:40:07;97888.28;;;5.36;83.54
28008;BME280;15333;50.010;20.020;2024-02-26T02:43:08;97893.06;;;5.31;83.97
28008;BME280;15333;50.010;20.020;2024-02-26T02:46:09;97886.56;;;5.35;83.21
28008;BME280;15333;50.010;20.020;2024-02-26T02:49:12;97898.03;;;5.23;83.80
28008;BME280;15333;50.010;20.020;2024-02-26T02:52:13;97902.38;;;5.24;83.37
28008;BME280;15333;50.010;20.020;2024-02-26T02:55:14;97896.94;;;5.12;83.75
28008;BME280;15333;50.010;20.020;2024-02-26T02:58:15;97893.56;;;5.10;84.14
28008;BME280;15333;50.010;20.020;2024-02-26T03:01:16;97896.41;;;5.07;83.76
28008;BME280;15333;50.010;20.020;2024-02-26T03:04:17;97891.72;;;4.98;84.09
28008;BME280;15333;50.010;20.020;2024-02-26T03:07:18;97899.97;;;4.81;84.02
28008;BME280;15333;50.010;20.020;2024-02-26T03:10:19;97902.28;;;4.73;84.19
28008;BME280;15333;50.010;20.020;2024-02-26T03:13:20;97896.75;;;4.76;82.77
28008;BME280;15333;50.010;20.020;2024-02-26T03:16:21;97896.53;;;4.66;83.08
28008;BME280;15333;50.010;20.020;2024-02-26T03:19:23;97890.13;;;4.56;82.98
28008;BME280;15333;50.010;20.020;2024-02-26T03:22:23;97888.38;;;4.43;83.14
28008;BME280;15333;50.010;20.020;2024-02-26T03:25:25;97881.16;;;4.32;83.58
28008;BME280;15333;50.010;20.020;2024-02-26T03:28:25;97883.63;;;4.21;83.20
28008;BME280;15333;50.010;20.020;2024-02-26T03:31:27;97879.78;;;4.12;83.89
28008;BME280;15333;50.010;20.020;2024-02-26T03:34:28;97885.06;;;4.12;82.32
28008;BME280;15333;50.010;20.020;2024-02-26T03:37:29;97885.75;;;4.16;82.18
28008;BME280;15333;50.010;20.020;2024-02-26T03:40:30;97869.03;;;4.28;82.07
28008;BME280;15333;50.010;20.020;2024-02-26T03:43:31;97867.88;;;4.46;80.94
28008;BME280;15333;50.010;20.020;2024-02-26T03:46:32;97873.50;;;4.27;81.85
28008;BME280;15333;50.010;20.020;2024-02-26T03:49:33;97871.50;;;4.04;81.99
28008;BME280;15333;50.010;20.020;2024-02-26T03:52:34;97869.63;;;3.92;81.99
28008;BME280;15333;50.010;20.020;2024-02-26T03:55:35;97868.31;;;3.71;82.46
28008;BME280;15333;50.010;20.020;2024-02-26T03:58:36;97865.91;;;3.53;82.09
28008;BME280;15333;50.010;20.020;2024-02-26T04:01:37;97864.66;;;3.59;81.53
28008;BME280;15333;50.010;20.020;2024-02-26T04:04:38;97859.06;;;3.78;80.17
28008;BME280;15333;50.010;20.020;2024-02-26T04:07:39;97856.25;;;3.67;79.80
28008;BME280;15333;50.010;20.020;2024-02-26T04:10:40;97860.41;;;3.42;79.93
28008;BME280;15333;50.010;20.020;2024-02-26T04:13:41;97853.06;;;3.33;80.31
28008;BME280;15333;50.010;20.020;2024-02-26T04:16:42;97851.34;;;3.32;79.74
28008;BME280;15333;50.010;20.020;2024-02-26T04:19:43;97852.84;;;3.36;78.86
28008;BME280;15333;50.010;20.020;2024-02-26T04:22:44;97853.78;;;3.21;79.16
28008;BME280;15333;50.010;20.020;2024-02-26T04:25:45;97848.88;;;3.15;78.91
28008;BME280;15333;50.010;20.020;2024-02-26T04:28:46;97840.69;;;3.20;78.71
28008;BME280;15333;50.010;20.020;2024-02-26T04:31:47;97837.50;;;3.70;77.40
28008;BME280;15333;50.010;20.020;2024-02-26T04:34:48;97844.22;;;4.16;76.84
28008;BME280;15333;50.010;20.020;2024-02-26T04:37:49;97848.94;;;4.25;77.02
28008;BME280;15333;50.010;20.020;2024-02-26T04:40:50;97849.09;;;3.96;78.56
28008;BME280;15333;50.010;20.020;2024-02-26T04:43:51;97831.50;;;3.68;79.31
28008;BME280;15333;50.010;20.020;2024-02-26T04:46:52;97842.09;;;3.39;79.21
28008;BME280;15333;50.010;20.020;2024-02-26T04:49:53;97838.97;;;3.19;79.19
28008;BME280;15333;50.010;20.020;2024-02-26T04:52:54;97847.94;;;3.02;79.52
28008;BME280;15333;50.010;20.020;2024-02-26T04:55:55;97848.31;;;2.96;79.19
28008;BME280;15333;50.010;20.020;2024-02-26T04:58:56;97851.88;;;2.95;79.26
28008;BME280;15333;50.010;20.020;2024-02-26T05:01:57;97841.72;;;3.17;77.94
28008;BME280;15333;50.010;20.020;2024-02-26T05:04:57;97845.97;;;3.20;77.74
28008;BME280;15333;50.010;20.020;2024-02-26T05:07:59;97853.22;;;3.16;77.61
28008;BME280;15333;50.010;20.020;2024-02-26T05:11:00;97846.06;;;3.04;77.49
28008;BME280;15333;50.010;20.020;2024-02-26T05:14:02;97841.31;;;2.95;78.44
28008;BME280;15333;50.010;20.020;2024-02-26T05:17:03;97848.00;;;2.86;77.88
28008;BME280;15333;50.010;20.020;2024-02-26T05:20:04;97853.31;;;2.70;77.86
28008;BME280;15333;50.010;20.020;2024-02-26T05:23:09;97850.88;;;2.67;77.01
28008;BME280;15333;50.010;20.020;2024-02-26T05:26:10;97847.75;;;2.61;76.67
28008;BME280;15333;50.010;20.020;2024-02-26T05:29:11;97849.09;;;2.68;76.17
28008;BME280;15333;50.010;20.020;2024-02-26T05:32:12;97855.63;;;2.77;74.83
28008;BME280;15333;50.010;20.020;2024-02-26T05:35:13;97860.50;;;2.68;75.38
28008;BME280;15333;50.010;20.020;2024-02-26T05:38:14;97857.63;;;2.57;75.05
28008;BME280;15333;50.010;20.020;2024-02-26T05:41:17;97863.13;;;2.54;74.87
28008;BME280;15333;50.010;20.020;2024-02-26T05:44:27;97871.78;;;2.56;73.93
28008;BME280;15333;50.010;20.020;2024-02-26T05:47:28;97877.88;;;2.72;73.87
28008;BME280;15333;50.010;20.020;2024-02-26T05:50:29;97871.53;;;2.91;72.55
28008;BME280;15333;50.010;20.020;2024-02-26T05:53:30;97881.19;;;2.76;72.64
28008;BME280;15333;50.010;20.020;2024-02-26T05:56:31;97887.09;;;2.65;73.20
28008;BME280;15333;50.010;20.020;2024-02-26T05:59:31;97885.72;;;2.74;72.92
28008;BME280;15333;50.010;20.020;2024-02-26T06:02:33;97886.88;;;2.84;72.47
28008;BME280;15333;50.010;20.020;2024-02-26T06:05:33;97880.88;;;2.96;74.19
28008;BME280;15333;50.010;20.020;2024-02-26T06:08:35;97878.13;;;2.98;74.42
28008;BME280;15333;50.010;20.020;2024-02-26T06:11:35;97879.47;;;3.05;74.31
28008;BME280;15333;50.010;20.020;2024-02-26T06:14:37;97889.78;;;3.24;74.48
28008;BME280;15333;50.010;20.020;2024-02-26T06:17:37;97872.91;;;3.40;74.22
28008;BME280;15333;50.010;20.020;2024-02-26T06:20:38;97875.09;;;4.03;74.17
28008;BME280;15333;50.010;20.020;2024-02-26T06:23:39;97890.13;;;4.03;75.91
28008;BME280;15333;50.010;20.020;2024-02-26T06:26:43;97878.19;;;4.37;75.31
28008;BME280;15333;50.010;20.020;2024-02-26T06:29:44;97878.16;;;4.51;77.05
28008;BME280;15333;50.010;20.020;2024-02-26T06:32:45;97880.59;;;4.54;77.74
28008;BME280;15333;50.010;20.020;2024-02-26T06:35:46;97882.94;;;4.58;78.46
28008;BME280;15333;50.010;20.020;2024-02-26T06:38:47;97895.47;;;4.69;78.37
28008;BME280;15333;50.010;20.020;2024-02-26T06:41:48;97906.78;;;4.58;78.74
28008;BME280;15333;50.010;20.020;2024-02-26T06:44:49;97901.75;;;4.68;79.80
28008;BME280;15333;50.010;20.020;2024-02-26T06:47:50;97904.41;;;4.68;79.47
28008;BME280;15333;50.010;20.020;2024-02-26T06:50:51;97900.47;;;4.73;80.53
28008;BME280;15333;50.010;20.020;2024-02-26T06:53:52;97902.97;;;4.89;80.61
28008;BME280;15333;50.010;20.020;2024-02-26T06:56:53;97896.59;;;5.04;81.56
28008;BME280;15333;50.010;20.020;2024-02-26T06:59:53;97900.44;;;5.13;81.92
28008;BME280;15333;50.010;20.020;2024-02-26T07:02:55;97917.88;;;5.30;82.50
28008;BME280;15333;50.010;20.020;2024-02-26T07:05:55;97899.84;;;5.60;83.35
28008;BME280;15333;50.010;20.020;2024-02-26T07:08:57;97888.69;;;5.55;84.22
28008;BME280;15333;50.010;20.020;2024-02-26T07:11:58;97898.97;;;5.72;84.94
28008;BME280;15333;50.010;20.020;2024-02-26T07:15:00;97896.41;;;5.83;86.31
28008;BME280;15333;50.010;20.020;2024-02-26T07:18:01;97916.94;;;5.81;86.60
28008;BME280;15333;50.010;20.020;2024-02-26T07:21:05;97904.81;;;5.77;86.53
28008;BME280;15333;50.010;20.020;2024-02-26T07:24:06;97892.03;;;6.08;86.70
28008;BME280;15333;50.010;20.020;2024-02-26T07:27:07;97903.19;;;6.13;87.18
28008;BME280;15333;50.010;20.020;2024-02-26T07:30:09;97904.28;;;6.34;86.92
28008;BME280;15333;50.010;20.020;2024-02-26T07:33:10;97911.00;;;6.27;86.94
28008;BME280;15333;50.010;20.020;2024-02-26T07:36:11;97891.13;;;6.56;86.64
28008;BME280;15333;50.010;20.020;2024-02-26T07:39:12;97899.97;;;6.81;87.35
28008;BME280;15333;50.010;20.020;2024-02-26T07:42:13;97903.78;;;6.77;87.81
28008;BME280;15333;50.010;20.020;2024-02-26T07:45:15;97902.06;;;6.88;86.72
28008;BME280;15333;50.010;20.020;2024-02-26T07:48:16;97900.88;;;7.03;86.60
28008;BME280;15333;50.010;20.020;2024-02-26T07:51:17;97893.16;;;7.58;87.29
28008;BME280;15333;50.010;20.020;2024-02-26T07:54:18;97899.44;;;7.90;88.04
28008;BME280;15333;50.010;20.020;2024-02-26T07:57:20;97887.22;;;8.10;88.13
28008;BME280;15333;50.010;20.020;2024-02-26T08:00:22;97887.94;;;8.23;88.08
28008;BME280;15333;50.010;20.020;2024-02-26T08:03:23;97897.63;;;8.35;87.52
28008;BME280;15333;50.010;20.020;2024-02-26T08:06:24;97895.78;;;8.24;86.84
28008;BME280;15333;50.010;20.020;2024-02-26T08:09:25;97894.34;;;8.43;86.34
28008;BME280;15333;50.010;20.020;2024-02-26T08:12:26;97889.94;;;8.64;86.92
28008;BME280;15333;50.010;20.020;2024-02-26T08:15:27;97887.38;;;8.74;86.57
28008;BME280;15333;50.010;20.020;2024-02-26T08:18:28;97888.41;;;9.35;86.95
28008;BME280;15333;50.010;20.020;2024-02-26T08:21:29;97885.50;;;9.68;87.32
28008;BME280;15333;50.010;20.020;2024-02-26T08:24:30;97882.56;;;9.71;86.88
28008;BME280;15333;50.010;20.020;2024-02-26T08:27:31;97885.94;;;10.04;86.52
28008;BME280;15333;50.010;20.020;2024-02-26T08:30:31;97890.59;;;9.71;85.66
28008;BME280;15333;50.010;20.020;2024-02-26T08:33:33;97893.88;;;10.15;86.22
28008;BME280;15333;50.010;20.020;2024-02-26T08:36:35;97888.38;;;10.07;85.32
28008;BME280;15333;50.010;20.020;2024-02-26T08:39:36;97894.94;;;10.33;85.98
28008;BME280;15333;50.010;20.020;2024-02-26T08:42:37;97888.03;;;10.21;86.47
28008;BME280;15333;50.010;20.020;2024-02-26T08:45:38;97897.28;;;10.17;86.29
28008;BME280;15333;50.010;20.020;2024-02-26T08:48:39;97888.97;;;9.90;85.76
28008;BME280;15333;50.010;20.020;2024-02-26T08:51:43;97885.50;;;9.68;85.12
28008;BME280;15333;50.010;20.020;2024-02-26T08:54:45;97880.44;;;10.26;85.16
28008;BME280;15333;50.010;20.020;2024-02-26T08:57:46;97868.38;;;10.41;85.64
28008;BME280;15333;50.010;20.020;2024-02-26T09:00:47;97873.56;;;10.33;85.60
28008;BME280;15333;50.010;20.020;2024-02-26T09:03:48;97870.06;;;10.42;86.58
28008;BME280;15333;50.010;20.020;2024-02-26T09:06:50;97870.84;;;10.24;85.25
28008;BME280;15333;50.010;20.020;2024-02-26T09:09:51;97872.50;;;10.15;85.60
28008;BME280;15333;50.010;20.020;2024-02-26T09:12:52;97873.38;;;10.25;85.53
28008;BME280;15333;50.010;20.020;2024-02-26T09:15:53;97872.75;;;10.42;85.49
28008;BME280;15333;50.010;20.020;2024-02-26T09:18:56;97857.28;;;10.55;86.16
28008;BME280;15333;50.010;20.020;2024-02-26T09:21:57;97864.47;;;10.65;86.05
28008;BME280;15333;50.010;20.020;2024-02-26T09:24:58;97864.75;;;10.81;86.08
28008;BME280;15333;50.010;20.020;2024-02-26T09:27:59;97863.09;;;10.99;86.25
28008;BME280;15333;50.010;20.020;2024-02-26T09:31:00;97865.03;;;11.16;87.12
28008;BME280;15333;50.010;20.020;2024-02-26T09:34:01;97873.47;;;11.41;94.64
28008;BME280;15333;50.010;20.020;2024-02-26T09:37:02;97876.53;;;11.65;100.00
28008;BME280;15333;50.010;20.020;2024-02-26T09:40:04;97880.16;;;11.83;100.00
28008;BME280;15333;50.010;20.020;2024-02-26T09:43:10;97879.59;;;11.89;100.00
28008;BME280;15333;50.010;20.020;2024-02-26T09:46:15;97879.81;;;12.05;100.00
28008;BME280;15333;50.010;20.020;2024-02-26T09:49:23;97869.81;;;11.98;100.00
28008;BME280;15333;50.010;20.020;2024-02-26T09:52:25;97865.03;;;12.29;100.00
28008;BME280;15333;50.010;20.020;2024-02-26T09:55:27;97871.66;;;12.52;100.00
28008;BME280;15333;50.010;20.020;2024-02-26T09:58:28;97871.06;;;12.93;100.00
28008;BME280;15333;50.010;20.020;2024-02-26T10:01:31;97863.25;;;12.82;100.00
28008;BME280;15333;50.010;20.020;2024-02-26T10:04:34;97872.94;;;13.46;100.00
28008;BME280;15333;50.010;20.020;2024-02-26T10:07:35;97867.34;;;13.65;100.00
28008;BME280;15333;50.010;20.020;2024-02-26T10:10:37;97859.81;;;13.95;100.00
28008;BME280;15333;50.010;20.020;2024-02-26T10:13:39;97852.47;;;14.05;100.00
28008;BME280;15333;50.010;20.020;2024-02-26T10:16:40;97845.00;;;13.91;100.00
28008;BME280;15333;50.010;20.020;2024-02-26T10:19:41;97841.63;;;13.89;100.00
28008;BME280;15333;50.010;20.020;2024-02-26T10:22:43;97853.34;;;14.14;100.00
28008;BME280;15333;50.010;20.020;2024-02-26T10:25:55;97847.72;;;14.33;100.00
28008;BME280;15333;50.010;20.020;2024-02-26T10:28:59;97852.84;;;14.18;100.00
28008;BME280;15333;50.010;20.020;2024-02-26T10:32:02;97843.25;;;14.41;100.00
28008;BME280;15333;50.010;20.020;2024-02-26T10:35:08;97839.56;;;14.59;99.40
28008;BME280;15333;50.010;20.020;2024-02-26T10:38:09;97849.31;;;14.52;97.48
28008;BME280;15333;50.010;20.020;2024-02-26T10:41:13;97844.47;;;14.63;96.66
28008;BME280;15333;50.010;20.020;2024-02-26T10:44:15;97844.66;;;14.70;95.60
28008;BME280;15333;50.010;20.020;2024-02-26T10:47:17;97840.47;;;14.75;95.39
28008;BME280;15333;50.010;20.020;2024-02-26T10:50:19;97826.69;;;15.03;96.65
28008;BME280;15333;50.010;20.020;2024-02-26T10:53:21;97833.25;;;15.16;92.95
28008;BME280;15333;50.010;20.020;2024-02-26T10:56:24;97834.25;;;15.07;94.33
28008;BME280;15333;50.010;20.020;2024-02-26T10:59:26;97825.50;;;15.38;91.25
28008;BME280;15333;50.010;20.020;2024-02-26T11:02:27;97821.28;;;15.51;91.11
28008;BME280;15333;50.010;20.020;2024-02-26T11:05:29;97823.81;;;15.45;91.85
28008;BME280;15333;50.010;20.020;2024-02-26T11:08:30;97830.56;;;15.08;92.75
28008;BME280;15333;50.010;20.020;2024-02-26T11:11:34;97819.75;;;14.92;94.08
28008;BME280;15333;50.010;20.020;2024-02-26T11:14:39;97821.16;;;15.12;91.85
28008;BME280;15333;50.010;20.020;2024-02-26T11:17:41;97820.63;;;14.84;92.18
28008;BME280;15333;50.010;20.020;2024-02-26T11:20:44;97822.13;;;14.87;93.01
28008;BME280;15333;50.010;20.020;2024-02-26T11:23:46;97817.44;;;15.05;93.81
28008;BME280;15333;50.010;20.020;2024-02-26T11:26:57;97816.06;;;15.09;92.67
28008;BME280;15333;50.010;20.020;2024-02-26T11:30:01;97811.69;;;15.00;94.13
28008;BME280;15333;50.010;20.020;2024-02-26T11:33:03;97816.06;;;14.77;95.52
28008;BME280;15333;50.010;20.020;2024-02-26T11:36:09;97817.06;;;15.00;93.59
28008;BME280;15333;50.010;20.020;2024-02-26T11:39:11;97810.19;;;15.22;93.28
28008;BME280;15333;50.010;20.020;2024-02-26T11:42:17;97801.22;;;15.46;89.64
28008;BME280;15333;50.010;20.020;2024-02-26T11:45:47;97805.97;;;15.60;88.19
28008;BME280;15333;50.010;20.020;2024-02-26T11:48:50;97801.88;;;15.80;85.93
28008;BME280;15333;50.010;20.020;2024-02-26T11:51:52;97803.38;;;15.83;87.80
28008;BME280;15333;50.010;20.020;2024-02-26T11:54:56;97801.88;;;15.72;86.33
28008;BME280;15333;50.010;20.020;2024-02-26T11:57:57;97816.59;;;15.61;86.85
28008;BME280;15333;50.010;20.020;2024-02-26T12:00:58;97813.03;;;15.69;87.65
28008;BME280;15333;50.010;20.020;2024-02-26T12:03:59;97810.94;;;15.87;86.93
28008;BME280;15333;50.010;20.020;2024-02-26T12:07:03;97809.91;;;15.96;85.84
28008;BME280;15333;50.010;20.020;2024-02-26T12:10:19;97810.44;;;16.31;83.77
28008;BME280;15333;50.010;20.020;2024-02-26T12:13:29;97811.03;;;16.49;82.93
28008;BME280;15333;50.010;20.020;2024-02-26T12:16:37;97807.97;;;16.52;81.98
28008;BME280;15333;50.010;20.020;2024-02-26T12:19:39;97797.38;;;16.81;80.23
28008;BME280;15333;50.010;20.020;2024-02-26T12:22:39;97792.25;;;16.87;79.27
28008;BME280;15333;50.010;20.020;2024-02-26T12:25:41;97791.78;;;16.83;80.24
28008;BME280;15333;50.010;20.020;2024-02-26T12:28:46;97792.53;;;16.92;78.82
28008;BME280;15333;50.010;20.020;2024-02-26T12:31:47;97788.41;;;16.81;78.87
28008;BME280;15333;50.010;20.020;2024-02-26T12:34:49;97800.41;;;16.78;79.81
28008;BME280;15333;50.010;20.020;2024-02-26T12:37:50;97796.78;;;16.63;81.09
28008;BME280;15333;50.010;20.020;2024-02-26T12:40:54;97790.34;;;16.95;80.01
28008;BME280;15333;50.010;20.020;2024-02-26T12:43:55;97794.06;;;16.94;78.98
28008;BME280;15333;50.010;20.020;2024-02-26T12:47:04;97787.91;;;16.77;79.95
28008;BME280;15333;50.010;20.020;2024-02-26T12:50:06;97792.34;;;16.70;79.95
28008;BME280;15333;50.010;20.020;2024-02-26T12:53:08;97802.28;;;16.47;80.51
28008;BME280;15333;50.010;20.020;2024-02-26T12:56:09;97798.38;;;16.19;82.51
28008;BME280;15333;50.010;20.020;2024-02-26T12:59:11;97800.94;;;16.12;83.03
28008;BME280;15333;50.010;20.020;2024-02-26T13:02:12;97808.53;;;16.09;83.04
28008;BME280;15333;50.010;20.020;2024-02-26T13:05:14;97792.19;;;16.02;84.52
28008;BME280;15333;50.010;20.020;2024-02-26T13:08:21;97798.16;;;16.20;83.05
28008;BME280;15333;50.010;20.020;2024-02-26T13:11:22;97800.66;;;16.30;82.67
28008;BME280;15333;50.010;20.020;2024-02-26T13:14:23;97796.78;;;15.85;86.02
28008;BME280;15333;50.010;20.020;2024-02-26T13:17:24;97801.38;;;15.52;89.66
28008;BME280;15333;50.010;20.020;2024-02-26T13:20:29;97807.00;;;15.26;93.73
28008;BME280;15333;50.010;20.020;2024-02-26T13:23:30;97798.22;;;15.24;93.41
28008;BME280;15333;50.010;20.020;2024-02-26T13:26:31;97801.59;;;15.26;93.88
28008;BME280;15333;50.010;20.020;2024-02-26T13:29:32;97808.69;;;15.19;93.60
28008;BME280;15333;50.010;20.020;2024-02-26T13:32:35;97805.78;;;15.29;94.41
28008;BME280;15333;50.010;20.020;2024-02-26T13:35:36;97799.75;;;15.19;95.22
28008;BME280;15333;50.010;20.020;2024-02-26T13:38:39;97801.59;;;15.10;97.74
28008;BME280;15333;50.010;20.020;2024-02-26T13:41:40;97800.91;;;15.24;96.25
28008;BME280;15333;50.010;20.020;2024-02-26T13:44:43;97812.53;;;15.17;96.95
28008;BME280;15333;50.010;20.020;2024-02-26T13:47:44;97819.78;;;15.08;98.89
28008;BME280;15333;50.010;20.020;2024-02-26T13:50:45;97814.56;;;15.15;97.71
28008;BME280;15333;50.010;20.020;2024-02-26T13:53:46;97805.97;;;15.19;98.42
28008;BME280;15333;50.010;20.020;2024-02-26T13:56:47;97812.38;;;15.10;98.74
28008;BME280;15333;50.010;20.020;2024-02-26T13:59:48;97821.78;;;15.14;97.75
28008;BME280;15333;50.010;20.020;2024-02-26T14:02:50;97822.00;;;15.13;98.25
28008;BME280;15333;50.010;20.020;2024-02-26T14:05:52;97817.94;;;15.17;98.53
28008;BME280;15333;50.010;20.020;2024-02-26T14:08:53;97822.16;;;15.19;98.10
28008;BME280;15333;50.010;20.020;2024-02-26T14:11:53;97819.78;;;15.16;97.39
28008;BME280;15333;50.010;20.020;2024-02-26T14:14:55;97816.59;;;15.13;98.46
28008;BME280;15333;50.010;20.020;2024-02-26T14:17:56;97819.78;;;15.08;99.12
28008;BME280;15333;50.010;20.020;2024-02-26T14:20:57;97814.06;;;15.11;99.07
28008;BME280;15333;50.010;20.020;2024-02-26T14:23:58;97810.00;;;15.07;99.11
28008;BME280;15333;50.010;20.020;2024-02-26T14:26:59;97809.69;;;15.02;99.93
28008;BME280;15333;50.010;20.020;2024-02-26T14:30:00;97806.66;;;14.97;99.54
28008;BME280;15333;50.010;20.020;2024-02-26T14:33:01;97803.63;;;14.84;100.00
28008;BME280;15333;50.010;20.020;2024-02-26T14:36:02;97814.38;;;14.76;100.00
28008;BME280;15333;50.010;20.020;2024-02-26T14:39:03;97811.00;;;14.74;100.00
28008;BME280;15333;50.010;20.020;2024-02-26T14:42:04;97832.16;;;14.53;100.00
28008;BME280;15333;50.010;20.020;2024-02-26T14:45:06;97830.81;;;14.48;100.00
28008;BME280;15333;50.010;20.020;2024-02-26T14:48:09;97834.13;;;14.42;100.00
28008;BME280;15333;50.010;20.020;2024-02-26T14:51:12;97836.78;;;14.34;100.00
28008;BME280;15333;50.010;20.020;2024-02-26T14:54:14;97839.00;;;14.39;100.00
28008;BME280;15333;50.010;20.020;2024-02-26T14:57:15;97838.78;;;14.32;100.00
28008;BME280;15333;50.010;20.020;2024-02-26T15:00:16;97827.78;;;14.18;100.00
28008;BME280;15333;50.010;20.020;2024-02-26T15:03:17;97836.69;;;14.10;100.00
28008;BME280;15333;50.010;20.020;2024-02-26T15:06:18;97835.59;;;13.95;100.00
28008;BME280;15333;50.010;20.020;2024-02-26T15:09:19;97840.97;;;13.95;100.00
28008;BME280;15333;50.010;20.020;2024-02-26T15:12:19;97849.00;;;13.87;100.00
28008;BME280;15333;50.010;20.020;2024-02-26T15:15:21;97851.31;;;13.82;100.00
28008;BME280;15333;50.010;20.020;2024-02-26T15:18:22;97856.66;;;13.73;100.00
28008;BME280;15333;50.010;20.020;2024-02-26T15:21:23;97849.84;;;13.61;100.00
28008;BME280;15333;50.010;20.020;2024-02-26T15:24:24;97849.44;;;13.48;100.00
28008;BME280;15333;50.010;20.020;2024-02-26T15:27:25;97858.44;;;13.39;100.00
28008;BME280;15333;50.010;20.020;2024-02-26T15:30:26;97859.75;;;13.35;100.00
28008;BME280;15333;50.010;20.020;2024-02-26T15:33:30;97859.84;;;13.25;100.00
28008;BME280;15333;50.010;20.020;2024-02-26T15:36:31;97854.22;;;13.19;100.00
28008;BME280;15333;50.010;20.020;2024-02-26T15:39:33;97854.09;;;13.20;100.00
28008;BME280;15333;50.010;20.020;2024-02-26T15:42:34;97855.81;;;13.12;100.00
28008;BME280;15333;50.010;20.020;2024-02-26T15:45:35;97862.03;;;12.94;100.00
28008;BME280;15333;50.010;20.020;2024-02-26T15:48:37;97863.44;;;12.99;100.00
28008;BME280;15333;50.010;20.020;2024-02-26T15:51:38;97867.56;;;12.75;100.00
28008;BME280;15333;50.010;20.020;2024-02-26T15:54:39;97876.88;;;12.53;100.00